createdAt,value
2023-05-10T00:00:35.214Z,20.30
2023-05-10T00:03:05.419Z,20.30
2023-05-10T00:05:33.330Z,20.20
2023-05-10T00:08:01.227Z,20.20
2023-05-10T00:10:29.105Z,20.30
2023-05-10T00:12:57.068Z,20.40
2023-05-10T00:15:26.308Z,20.40
2023-05-10T00:17:54.240Z,20.40
2023-05-10T00:20:22.127Z,20.40
2023-05-10T00:22:49.992Z,20.40
2023-05-10T00:25:18.015Z,20.30
2023-05-10T00:27:45.935Z,20.30
2023-05-10T00:30:14.175Z,20.30
2023-05-10T00:32:46.759Z,20.30
2023-05-10T00:35:14.963Z,20.30
2023-05-10T00:37:43.288Z,20.30
2023-05-10T00:40:11.925Z,20.20
2023-05-10T00:42:39.914Z,20.20
2023-05-10T00:45:09.655Z,20.20
2023-05-10T00:47:37.581Z,20.20
2023-05-10T00:50:08.224Z,20.30
2023-05-10T00:52:36.058Z,20.40
2023-05-10T00:55:04.302Z,20.50
2023-05-10T00:57:33.172Z,20.50
2023-05-10T01:00:03.445Z,20.60
2023-05-10T01:02:31.504Z,20.50
2023-05-10T01:04:59.522Z,20.40
2023-05-10T01:07:29.059Z,20.30
2023-05-10T01:09:56.935Z,20.30
2023-05-10T01:12:27.579Z,20.30
2023-05-10T01:14:56.207Z,20.30
2023-05-10T01:17:24.252Z,20.20
2023-05-10T01:19:52.279Z,20.20
2023-05-10T01:22:34.010Z,20.20
2023-05-10T01:25:15.817Z,20.20
2023-05-10T01:28:10.230Z,20.20
2023-05-10T01:30:50.192Z,20.20
2023-05-10T01:33:20.443Z,20.20
2023-05-10T01:35:54.367Z,20.20
2023-05-10T01:38:24.814Z,20.30
2023-05-10T01:40:57.132Z,20.40
2023-05-10T01:43:27.154Z,20.40
2023-05-10T01:46:00.996Z,20.40
2023-05-10T01:48:30.334Z,20.40
2023-05-10T01:50:58.255Z,20.40
2023-05-10T01:53:26.194Z,20.40
2023-05-10T01:55:54.604Z,20.30
2023-05-10T01:58:23.498Z,20.30
2023-05-10T02:00:52.032Z,20.30
2023-05-10T02:03:21.031Z,20.30
2023-05-10T02:05:52.392Z,20.20
2023-05-10T02:08:23.295Z,20.20
2023-05-10T02:10:53.725Z,20.20
2023-05-10T02:13:21.780Z,20.20
2023-05-10T02:15:50.590Z,20.20
2023-05-10T02:18:18.899Z,20.30
2023-05-10T02:20:46.951Z,20.40
2023-05-10T02:23:16.253Z,20.50
2023-05-10T02:25:44.574Z,20.60
2023-05-10T02:28:12.523Z,20.50
2023-05-10T02:30:42.122Z,20.40
2023-05-10T02:33:10.058Z,20.40
2023-05-10T02:35:37.982Z,20.30
2023-05-10T02:38:06.163Z,20.30
2023-05-10T02:40:35.391Z,20.30
2023-05-10T02:43:03.981Z,20.30
2023-05-10T02:45:33.540Z,20.20
2023-05-10T02:48:03.722Z,20.20
2023-05-10T02:50:32.057Z,20.20
2023-05-10T02:53:02.737Z,20.20
2023-05-10T02:55:35.370Z,20.20
2023-05-10T02:58:03.916Z,20.20
2023-05-10T03:00:31.867Z,20.20
2023-05-10T03:02:59.910Z,20.20
2023-05-10T03:05:28.983Z,20.30
2023-05-10T03:08:01.618Z,20.40
2023-05-10T03:10:30.120Z,20.50
2023-05-10T03:13:07.948Z,20.50
2023-05-10T03:15:40.179Z,20.50
2023-05-10T03:18:09.981Z,20.50
2023-05-10T03:20:38.611Z,20.40
2023-05-10T03:23:09.603Z,20.30
2023-05-10T03:25:37.541Z,20.30
2023-05-10T03:28:08.991Z,20.30
2023-05-10T03:30:37.747Z,20.30
2023-05-10T03:33:08.675Z,20.20
2023-05-10T03:35:40.950Z,20.20
2023-05-10T03:38:08.967Z,20.20
2023-05-10T03:40:38.200Z,20.20
2023-05-10T03:43:06.166Z,20.20
2023-05-10T03:45:35.673Z,20.20
2023-05-10T03:48:03.710Z,20.20
2023-05-10T03:50:31.764Z,20.20
2023-05-10T03:53:00.176Z,20.20
2023-05-10T03:55:30.379Z,20.30
2023-05-10T03:57:58.355Z,20.40
2023-05-10T04:00:31.040Z,20.50
2023-05-10T04:03:00.514Z,20.50
2023-05-10T04:05:28.645Z,20.50
2023-05-10T04:07:56.556Z,20.40
2023-05-10T04:10:24.473Z,20.30
2023-05-10T04:12:52.436Z,20.30
2023-05-10T04:15:20.455Z,20.30
2023-05-10T04:17:48.341Z,20.30
2023-05-10T04:20:17.941Z,20.20
2023-05-10T04:22:45.998Z,20.20
2023-05-10T04:25:14.075Z,20.20
2023-05-10T04:27:44.657Z,20.20
2023-05-10T04:30:13.226Z,20.20
2023-05-10T04:32:43.860Z,20.20
2023-05-10T04:35:12.073Z,20.20
2023-05-10T04:37:41.352Z,20.10
2023-05-10T04:40:10.435Z,20.20
2023-05-10T04:42:38.414Z,20.30
2023-05-10T04:45:07.386Z,20.40
2023-05-10T04:47:35.354Z,20.50
2023-05-10T04:50:03.330Z,20.60
2023-05-10T04:52:31.297Z,20.50
2023-05-10T04:55:00.589Z,20.50
2023-05-10T04:57:31.096Z,20.40
2023-05-10T04:59:59.276Z,20.30
2023-05-10T05:02:27.224Z,20.30
2023-05-10T05:04:55.191Z,20.30
2023-05-10T05:07:23.370Z,20.30
2023-05-10T05:09:52.452Z,20.20
2023-05-10T05:12:21.724Z,20.20
2023-05-10T05:14:49.584Z,20.20
2023-05-10T05:17:17.487Z,20.20
2023-05-10T05:19:45.347Z,20.20
2023-05-10T05:22:13.236Z,20.20
2023-05-10T05:24:41.175Z,20.20
2023-05-10T05:27:09.080Z,20.20
2023-05-10T05:29:38.303Z,20.20
2023-05-10T05:32:09.445Z,20.40
2023-05-10T05:34:37.532Z,20.50
2023-05-10T05:37:05.443Z,20.50
2023-05-10T05:39:33.370Z,20.60
2023-05-10T05:42:01.250Z,20.50
2023-05-10T05:44:29.792Z,20.40
2023-05-10T05:46:59.131Z,20.30
2023-05-10T05:49:27.031Z,20.30
2023-05-10T05:51:56.581Z,20.30
2023-05-10T05:54:24.463Z,20.30
2023-05-10T05:56:52.431Z,20.20
2023-05-10T05:59:20.284Z,20.20
2023-05-10T06:01:48.163Z,20.20
2023-05-10T06:04:20.546Z,20.20
2023-05-10T06:06:48.620Z,20.20
2023-05-10T06:09:18.939Z,20.20
2023-05-10T06:11:47.585Z,20.20
2023-05-10T06:14:15.736Z,20.20
2023-05-10T06:16:43.749Z,20.20
2023-05-10T06:19:11.746Z,20.40
2023-05-10T06:21:40.980Z,20.40
2023-05-10T06:24:08.998Z,20.50
2023-05-10T06:26:36.903Z,20.50
2023-05-10T06:29:04.808Z,20.50
2023-05-10T06:31:32.710Z,20.40
2023-05-10T06:34:00.618Z,20.30
2023-05-10T06:36:28.504Z,20.30
2023-05-10T06:38:57.739Z,20.30
2023-05-10T06:41:25.857Z,20.30
2023-05-10T06:43:53.773Z,20.20
2023-05-10T06:46:21.952Z,20.20
2023-05-10T06:48:49.957Z,20.20
2023-05-10T06:51:18.608Z,20.20
2023-05-10T06:53:46.528Z,20.20
2023-05-10T06:56:15.922Z,20.20
2023-05-10T06:58:43.783Z,20.20
2023-05-10T07:01:11.933Z,20.20
2023-05-10T07:03:39.964Z,20.20
2023-05-10T07:06:13.354Z,20.20
2023-05-10T07:08:46.557Z,20.30
2023-05-10T07:11:15.827Z,20.40
2023-05-10T07:13:45.245Z,20.40
2023-05-10T07:16:13.254Z,20.30
2023-05-10T07:18:41.269Z,20.30
2023-05-10T07:21:09.584Z,20.30
2023-05-10T07:23:37.616Z,20.30
2023-05-10T07:26:05.738Z,20.30
2023-05-10T07:28:35.040Z,20.20
2023-05-10T07:31:02.991Z,20.20
2023-05-10T07:33:31.087Z,20.20
2023-05-10T07:35:58.998Z,20.20
2023-05-10T07:38:29.854Z,20.10
2023-05-10T07:40:57.779Z,20.10
2023-05-10T07:43:25.686Z,20.10
2023-05-10T07:45:56.399Z,20.20
2023-05-10T07:48:24.860Z,20.30
2023-05-10T07:50:52.818Z,20.30
2023-05-10T07:53:20.841Z,20.30
2023-05-10T07:55:55.411Z,20.20
2023-05-10T07:58:23.301Z,20.20
2023-05-10T08:00:51.241Z,20.20
2023-05-10T08:03:20.673Z,20.20
2023-05-10T08:05:48.737Z,20.20
2023-05-10T08:08:16.614Z,20.20
2023-05-10T08:10:44.600Z,20.10
2023-05-10T08:13:12.534Z,20.20
2023-05-10T08:15:40.521Z,20.30
2023-05-10T08:18:08.493Z,20.30
2023-05-10T08:20:37.804Z,20.30
2023-05-10T08:23:05.793Z,20.20
2023-05-10T08:25:33.811Z,20.20
2023-05-10T08:28:01.749Z,20.20
2023-05-10T08:30:29.676Z,20.20
2023-05-10T08:32:57.736Z,20.20
2023-05-10T08:35:26.326Z,20.10
2023-05-10T08:37:55.596Z,20.10
2023-05-10T08:40:23.456Z,20.10
2023-05-10T08:42:57.754Z,20.10
2023-05-10T08:45:25.732Z,20.10
2023-05-10T08:47:53.685Z,20.10
2023-05-10T08:50:25.604Z,20.10
2023-05-10T08:52:54.856Z,20.20
2023-05-10T08:55:24.202Z,20.20
2023-05-10T08:57:52.141Z,20.30
2023-05-10T09:00:21.031Z,20.20
2023-05-10T09:02:51.198Z,20.20
2023-05-10T09:05:19.706Z,20.20
2023-05-10T09:07:47.959Z,20.20
2023-05-10T09:10:17.209Z,20.20
2023-05-10T09:12:46.252Z,20.10
2023-05-10T09:15:15.771Z,20.10
2023-05-10T09:17:44.038Z,20.10
2023-05-10T09:20:12.296Z,20.10
2023-05-10T09:22:41.046Z,20.10
2023-05-10T09:25:10.135Z,20.00
2023-05-10T09:27:39.676Z,20.10
2023-05-10T09:30:08.775Z,20.20
2023-05-10T09:32:40.819Z,20.30
2023-05-10T09:35:10.181Z,20.30
2023-05-10T09:37:38.082Z,20.40
2023-05-10T09:40:10.091Z,20.40
2023-05-10T09:42:42.694Z,20.30
2023-05-10T09:45:11.334Z,20.20
2023-05-10T09:47:39.392Z,20.20
2023-05-10T09:50:13.139Z,20.20
2023-05-10T09:52:52.000Z,20.20
2023-05-10T09:55:20.776Z,20.10
2023-05-10T09:57:50.510Z,20.10
2023-05-10T10:00:21.462Z,20.10
2023-05-10T10:02:50.254Z,20.10
2023-05-10T10:05:19.699Z,20.10
2023-05-10T10:07:47.583Z,20.10
2023-05-10T10:10:15.570Z,20.10
2023-05-10T10:12:43.744Z,20.00
2023-05-10T10:15:14.655Z,20.00
2023-05-10T10:17:44.452Z,20.10
2023-05-10T10:20:12.909Z,20.20
2023-05-10T10:22:40.759Z,20.40
2023-05-10T10:25:09.605Z,20.40
2023-05-10T10:27:43.343Z,20.40
2023-05-10T10:30:18.987Z,20.30
2023-05-10T10:33:16.575Z,20.30
2023-05-10T10:35:48.437Z,20.20
2023-05-10T10:38:16.410Z,20.20
2023-05-10T10:40:44.352Z,20.20
2023-05-10T10:43:25.018Z,20.20
2023-05-10T10:46:14.812Z,20.20
2023-05-10T10:48:42.893Z,20.10
2023-05-10T10:51:12.780Z,20.10
2023-05-10T10:53:41.847Z,20.10
2023-05-10T10:56:10.449Z,20.10
2023-05-10T10:58:38.870Z,20.10
2023-05-10T11:01:15.560Z,20.10
2023-05-10T11:04:00.659Z,20.10
2023-05-10T11:06:32.552Z,20.20
2023-05-10T11:09:00.899Z,20.20
2023-05-10T11:11:28.821Z,20.40
2023-05-10T11:13:56.719Z,20.40
2023-05-10T11:16:27.733Z,20.50
2023-05-10T11:19:05.461Z,20.40
2023-05-10T11:21:33.819Z,20.40
2023-05-10T11:24:06.395Z,20.30
2023-05-10T11:26:35.717Z,20.20
2023-05-10T11:29:05.414Z,20.20
2023-05-10T11:31:34.723Z,20.20
2023-05-10T11:34:03.272Z,20.10
2023-05-10T11:36:34.243Z,20.10
2023-05-10T11:39:02.175Z,20.10
2023-05-10T11:41:31.128Z,20.10
2023-05-10T11:44:00.832Z,20.10
2023-05-10T11:46:29.393Z,20.00
2023-05-10T11:49:01.634Z,20.00
2023-05-10T11:51:30.187Z,20.00
2023-05-10T11:53:58.741Z,20.00
2023-05-10T11:56:27.326Z,20.20
2023-05-10T11:58:58.596Z,20.20
2023-05-10T12:01:26.934Z,20.20
2023-05-10T12:03:55.961Z,20.20
2023-05-10T12:06:28.425Z,20.20
2023-05-10T12:08:56.321Z,20.20
2023-05-10T12:11:26.643Z,20.20
2023-05-10T12:13:54.576Z,20.20
2023-05-10T12:16:23.232Z,20.10
2023-05-10T12:18:52.534Z,20.10
2023-05-10T12:21:20.981Z,20.10
2023-05-10T12:23:52.755Z,20.10
2023-05-10T12:26:20.960Z,20.10
2023-05-10T12:28:48.874Z,20.00
2023-05-10T12:31:16.795Z,20.00
2023-05-10T12:33:45.571Z,20.00
2023-05-10T12:36:13.899Z,20.00
2023-05-10T12:38:44.073Z,20.00
2023-05-10T12:41:14.315Z,20.00
2023-05-10T12:43:42.416Z,20.00
2023-05-10T12:46:10.630Z,20.00
2023-05-10T12:48:38.894Z,20.10
2023-05-10T12:51:10.142Z,20.20
2023-05-10T12:53:38.092Z,20.40
2023-05-10T12:56:06.655Z,20.30
2023-05-10T12:58:36.404Z,20.40
2023-05-10T13:01:05.732Z,20.30
2023-05-10T13:03:33.938Z,20.20
2023-05-10T13:06:01.919Z,20.20
2023-05-10T13:08:34.058Z,20.10
2023-05-10T13:11:02.003Z,20.10
2023-05-10T13:13:29.907Z,20.10
2023-05-10T13:15:59.179Z,20.10
2023-05-10T13:18:27.410Z,20.00
2023-05-10T13:20:56.616Z,20.00
2023-05-10T13:23:24.558Z,20.00
2023-05-10T13:25:52.434Z,20.00
2023-05-10T13:28:20.425Z,20.00
2023-05-10T13:30:48.365Z,20.00
2023-05-10T13:33:17.586Z,20.00
2023-05-10T13:35:46.095Z,20.10
2023-05-10T13:38:14.674Z,20.20
2023-05-10T13:40:42.784Z,20.30
2023-05-10T13:43:11.094Z,20.30
2023-05-10T13:45:39.836Z,20.30
2023-05-10T13:48:07.923Z,20.20
2023-05-10T13:50:37.194Z,20.20
2023-05-10T13:53:07.366Z,20.20
2023-05-10T13:55:35.573Z,20.10
2023-05-10T13:58:03.648Z,20.10
2023-05-10T14:00:31.632Z,20.10
2023-05-10T14:02:59.602Z,20.10
2023-05-10T14:05:28.097Z,20.00
2023-05-10T14:07:58.139Z,20.00
2023-05-10T14:10:26.053Z,20.00
2023-05-10T14:12:53.960Z,20.00
2023-05-10T14:15:22.022Z,20.00
2023-05-10T14:17:50.050Z,20.00
2023-05-10T14:20:18.007Z,20.00
2023-05-10T14:22:45.909Z,20.00
2023-05-10T14:25:15.410Z,20.10
2023-05-10T14:27:43.574Z,20.20
2023-05-10T14:30:12.448Z,20.30
2023-05-10T14:32:40.419Z,20.30
2023-05-10T14:35:13.110Z,20.30
2023-05-10T14:37:41.481Z,20.30
2023-05-10T14:40:10.712Z,20.20
2023-05-10T14:42:39.955Z,20.10
2023-05-10T14:45:09.408Z,20.10
2023-05-10T14:47:37.772Z,20.10
2023-05-10T14:50:06.612Z,20.10
2023-05-10T14:52:34.569Z,20.00
2023-05-10T14:55:02.498Z,20.00
2023-05-10T14:57:30.573Z,20.00
2023-05-10T15:00:01.542Z,20.00
2023-05-10T15:02:39.097Z,20.00
2023-05-10T15:05:08.134Z,20.00
2023-05-10T15:07:36.632Z,20.00
2023-05-10T15:10:05.572Z,20.00
2023-05-10T15:12:33.523Z,20.00
2023-05-10T15:15:01.433Z,20.20
2023-05-10T15:17:29.334Z,20.30
2023-05-10T15:19:58.600Z,20.30
2023-05-10T15:22:26.644Z,20.30
2023-05-10T15:24:54.525Z,20.20
2023-05-10T15:27:24.733Z,20.20
2023-05-10T15:29:56.180Z,20.10
2023-05-10T15:32:26.105Z,20.10
2023-05-10T15:34:54.089Z,20.00
2023-05-10T15:37:24.605Z,20.00
2023-05-10T15:39:52.529Z,20.00
2023-05-10T15:42:20.422Z,20.00
2023-05-10T15:44:51.157Z,20.00
2023-05-10T15:47:19.110Z,19.90
2023-05-10T15:49:47.018Z,20.00
2023-05-10T15:52:15.256Z,19.90
2023-05-10T15:54:44.589Z,19.90
2023-05-10T15:57:12.554Z,19.90
2023-05-10T15:59:40.478Z,19.90
2023-05-10T16:02:08.798Z,20.00
2023-05-10T16:04:36.840Z,20.00
2023-05-10T16:07:04.836Z,20.20
2023-05-10T16:09:32.772Z,20.20
2023-05-10T16:12:02.094Z,20.30
2023-05-10T16:14:30.432Z,20.20
2023-05-10T16:16:58.477Z,20.20
2023-05-10T16:19:29.152Z,20.20
2023-05-10T16:21:57.966Z,20.10
2023-05-10T16:24:26.214Z,20.10
2023-05-10T16:26:54.129Z,20.10
2023-05-10T16:29:23.417Z,20.00
2023-05-10T16:31:51.336Z,20.00
2023-05-10T16:34:20.455Z,20.00
2023-05-10T16:36:48.345Z,20.00
2023-05-10T16:39:16.540Z,20.00
2023-05-10T16:41:44.670Z,20.00
2023-05-10T16:44:12.552Z,20.00
2023-05-10T16:46:42.161Z,20.00
2023-05-10T16:49:14.316Z,19.90
2023-05-10T16:51:45.097Z,20.10
2023-05-10T16:54:13.062Z,20.20
2023-05-10T16:56:41.045Z,20.30
2023-05-10T16:59:08.944Z,20.30
2023-05-10T17:01:36.908Z,20.30
2023-05-10T17:04:06.293Z,20.20
2023-05-10T17:06:34.404Z,20.10
2023-05-10T17:09:02.530Z,20.10
2023-05-10T17:11:33.690Z,20.10
2023-05-10T17:14:02.317Z,20.10
2023-05-10T17:16:30.918Z,20.00
2023-05-10T17:18:58.895Z,20.00
2023-05-10T17:21:28.335Z,20.00
2023-05-10T17:23:57.431Z,20.00
2023-05-10T17:26:27.343Z,20.00
2023-05-10T17:28:55.195Z,20.00
2023-05-10T17:31:23.197Z,20.00
2023-05-10T17:33:51.126Z,19.90
2023-05-10T17:36:19.050Z,19.90
2023-05-10T17:38:50.437Z,19.90
2023-05-10T17:41:18.445Z,20.00
2023-05-10T17:43:46.311Z,20.10
2023-05-10T17:46:14.199Z,20.20
2023-05-10T17:48:42.200Z,20.20
2023-05-10T17:51:11.222Z,20.20
2023-05-10T17:53:40.228Z,20.20
2023-05-10T17:56:09.897Z,20.20
2023-05-10T17:58:38.605Z,20.10
2023-05-10T18:01:06.924Z,20.10
2023-05-10T18:03:35.854Z,20.00
2023-05-10T18:06:04.326Z,20.00
2023-05-10T18:08:33.072Z,20.00
2023-05-10T18:11:00.962Z,20.00
2023-05-10T18:13:30.285Z,19.90
2023-05-10T18:15:58.219Z,20.00
2023-05-10T18:18:26.362Z,20.10
2023-05-10T18:20:57.468Z,20.10
2023-05-10T18:23:25.590Z,20.20
2023-05-10T18:25:53.645Z,20.10
2023-05-10T18:28:22.726Z,20.10
2023-05-10T18:30:52.165Z,20.10
2023-05-10T18:33:20.096Z,20.10
2023-05-10T18:35:48.028Z,20.10
2023-05-10T18:38:19.546Z,20.00
2023-05-10T18:40:47.660Z,20.00
2023-05-10T18:43:15.649Z,20.00
2023-05-10T18:45:43.890Z,20.00
2023-05-10T18:48:13.217Z,20.00
2023-05-10T18:50:41.144Z,19.90
2023-05-10T18:53:11.744Z,19.90
2023-05-10T18:55:39.792Z,20.00
2023-05-10T18:58:07.705Z,20.10
2023-05-10T19:00:35.647Z,20.20
2023-05-10T19:03:03.902Z,20.30
2023-05-10T19:05:33.342Z,20.30
2023-05-10T19:08:01.238Z,20.20
2023-05-10T19:10:29.186Z,20.10
2023-05-10T19:12:57.250Z,20.10
2023-05-10T19:15:25.413Z,20.10
2023-05-10T19:17:53.565Z,20.10
2023-05-10T19:20:21.690Z,20.00
2023-05-10T19:23:08.547Z,20.00
2023-05-10T19:25:37.472Z,20.00
2023-05-10T19:28:05.385Z,20.00
2023-05-10T19:30:33.448Z,19.90
2023-05-10T19:33:03.998Z,20.00
2023-05-10T19:35:32.041Z,20.00
2023-05-10T19:38:04.182Z,19.90
2023-05-10T19:40:32.261Z,19.90
2023-05-10T19:43:00.389Z,20.00
2023-05-10T19:45:28.376Z,20.10
2023-05-10T19:47:56.388Z,20.20
2023-05-10T19:50:24.417Z,20.30
2023-05-10T19:52:52.415Z,20.30
2023-05-10T19:55:29.486Z,20.20
2023-05-10T19:57:57.439Z,20.20
2023-05-10T20:00:27.318Z,20.10
2023-05-10T20:02:55.321Z,20.10
2023-05-10T20:05:23.282Z,20.00
2023-05-10T20:07:51.293Z,20.00
2023-05-10T20:10:19.636Z,20.00
2023-05-10T20:12:52.135Z,20.00
2023-05-10T20:15:20.837Z,19.90
2023-05-10T20:17:48.849Z,20.00
2023-05-10T20:20:17.083Z,20.00
2023-05-10T20:22:45.246Z,20.10
2023-05-10T20:25:13.210Z,20.10
2023-05-10T20:27:41.132Z,20.10
2023-05-10T20:30:11.289Z,20.10
2023-05-10T20:32:42.108Z,20.10
2023-05-10T20:35:10.730Z,20.00
2023-05-10T20:37:39.672Z,20.00
2023-05-10T20:40:08.595Z,20.00
2023-05-10T20:42:36.527Z,20.00
2023-05-10T20:45:04.743Z,20.00
2023-05-10T20:47:34.139Z,20.00
2023-05-10T20:50:02.033Z,20.00
2023-05-10T20:52:29.983Z,19.90
2023-05-10T20:54:58.891Z,19.90
2023-05-10T20:57:26.890Z,19.90
2023-05-10T20:59:54.829Z,20.00
2023-05-10T21:02:22.842Z,20.10
2023-05-10T21:04:52.237Z,20.10
2023-05-10T21:07:22.771Z,20.10
2023-05-10T21:09:50.852Z,20.10
2023-05-10T21:12:21.742Z,20.10
2023-05-10T21:14:52.668Z,20.10
2023-05-10T21:17:20.590Z,20.10
2023-05-10T21:19:48.493Z,20.00
2023-05-10T21:22:17.761Z,20.00
2023-05-10T21:24:45.725Z,20.00
2023-05-10T21:27:13.636Z,20.00
2023-05-10T21:29:41.536Z,20.00
2023-05-10T21:32:09.615Z,19.90
2023-05-10T21:34:37.736Z,19.90
2023-05-10T21:37:05.666Z,19.90
2023-05-10T21:39:34.918Z,19.90
2023-05-10T21:42:03.525Z,19.90
2023-05-10T21:44:34.346Z,19.90
2023-05-10T21:47:02.358Z,19.80
2023-05-10T21:49:31.490Z,19.90
2023-05-10T21:51:59.417Z,19.90
2023-05-10T21:54:27.358Z,20.00
2023-05-10T21:56:56.672Z,20.20
2023-05-10T21:59:24.541Z,20.30
2023-05-10T22:01:52.488Z,20.30
2023-05-10T22:04:24.213Z,20.20
2023-05-10T22:06:52.139Z,20.20
2023-05-10T22:09:20.025Z,20.10
2023-05-10T22:11:48.613Z,20.10
2023-05-10T22:14:17.899Z,20.00
2023-05-10T22:16:45.829Z,20.00
2023-05-10T22:19:13.718Z,20.00
2023-05-10T22:21:41.637Z,19.90
2023-05-10T22:24:12.115Z,19.90
2023-05-10T22:26:40.015Z,19.90
2023-05-10T22:29:07.872Z,19.90
2023-05-10T22:31:37.452Z,19.90
2023-05-10T22:34:05.760Z,19.90
2023-05-10T22:36:33.670Z,19.80
2023-05-10T22:39:01.648Z,19.90
2023-05-10T22:41:31.222Z,19.80
2023-05-10T22:43:59.262Z,19.90
2023-05-10T22:46:27.290Z,19.80
2023-05-10T22:48:59.591Z,19.80
2023-05-10T22:51:27.537Z,19.80
2023-05-10T22:53:58.404Z,19.80
2023-05-10T22:56:26.361Z,20.00
2023-05-10T22:58:54.554Z,20.10
2023-05-10T23:01:22.491Z,20.20
2023-05-10T23:03:50.412Z,20.30
2023-05-10T23:06:19.689Z,20.30
2023-05-10T23:08:48.062Z,20.20
2023-05-10T23:11:16.369Z,20.20
2023-05-10T23:13:44.608Z,20.10
2023-05-10T23:16:12.771Z,20.10
2023-05-10T23:18:41.105Z,20.00
2023-05-10T23:21:09.084Z,20.00
2023-05-10T23:23:38.440Z,20.00
2023-05-10T23:26:06.440Z,19.90
2023-05-10T23:28:39.910Z,19.90
2023-05-10T23:31:07.823Z,19.90
2023-05-10T23:33:38.686Z,19.90
2023-05-10T23:36:06.855Z,19.90
2023-05-10T23:38:34.729Z,19.80
2023-05-10T23:41:04.251Z,19.80
2023-05-10T23:43:32.180Z,19.80
2023-05-10T23:46:01.315Z,19.90
2023-05-10T23:48:29.441Z,20.00
2023-05-10T23:50:57.370Z,20.00
2023-05-10T23:53:25.447Z,20.00
2023-05-10T23:55:53.322Z,20.00
2023-05-10T23:58:22.620Z,20.00
